^^
Station Historical Data
Daily Summary for May 16, 2019 Units:  English    Metric   Both
« Previous Day
Next Day »
Daily Weekly Monthly Yearly Custom
  High: Low: Average:
Temperature: 61.1 °F 44.7 °F 53.6 °F
Dew Point: 49.7 °F 29.7 °F 40.1 °F
Humidity: 91% 32% 63%
Wind Speed: 24mph 2mph 11.9mph
Wind Gust: 28mph - -
Wind- - SE
Pressure: 29.86 in 29.55 in -
Precipitation: 0 in    
Historical Graphs
 
 
Tabular Data for May 16, 2019
Time Temperature Dew Point Pressure Wind Wind Speed Wind Gust Humidity Rainfall Rate (Hourly) solar Conditions
00:04 61.1 °F 49.7 °F 29.55 in WSW 2 mph 4 mph 66% 0 in 0.00 W/m2
00:09 61 °F 49.6 °F 29.55 in WSW 3 mph 4 mph 66% 0 in 0.00 W/m2
00:14 61 °F 49.6 °F 29.55 in West 4 mph 4 mph 66% 0 in 0.00 W/m2
00:19 60.6 °F 49.2 °F 29.57 in NW 10 mph 11 mph 66% 0 in 0.00 W/m2
00:24 59.9 °F 48.5 °F 29.57 in NW 15 mph 16 mph 66% 0 in 0.00 W/m2
00:29 59.6 °F 48.2 °F 29.57 in NW 9 mph 16 mph 66% 0 in 0.00 W/m2
00:34 59.5 °F 48.1 °F 29.57 in NNW 9 mph 16 mph 66% 0 in 0.00 W/m2
00:39 59.6 °F 48.2 °F 29.58 in NW 14 mph 16 mph 66% 0 in 0.00 W/m2
00:44 59.8 °F 47.6 °F 29.57 in NNW 13 mph 16 mph 64% 0 in 0.00 W/m2
00:49 60.3 °F 46.8 °F 29.58 in NW 13 mph 16 mph 61% 0 in 0.00 W/m2
00:54 60.4 °F 46.9 °F 29.58 in NW 13 mph 16 mph 61% 0 in 0.00 W/m2
00:59 60.3 °F 46.8 °F 29.58 in NNW 10 mph 16 mph 61% 0 in 0.00 W/m2
01:04 59.8 °F 46.7 °F 29.59 in NW 3 mph 16 mph 62% 0 in 0.00 W/m2
01:09 59.1 °F 46.5 °F 29.59 in NW 7 mph 12 mph 63% 0 in 0.00 W/m2
01:14 58.7 °F 46.1 °F 29.59 in WNW 4 mph 12 mph 63% 0 in 0.00 W/m2
01:19 58.2 °F 46.1 °F 29.60 in WNW 4 mph 9 mph 64% 0 in 0.00 W/m2
01:24 57.6 °F 46.3 °F 29.60 in West 4 mph 9 mph 66% 0 in 0.00 W/m2
01:29 57 °F 45.7 °F 29.60 in West 4 mph 9 mph 66% 0 in 0.00 W/m2
01:34 56.7 °F 45.9 °F 29.60 in WNW 7 mph 10 mph 67% 0 in 0.00 W/m2
01:39 57.1 °F 46.2 °F 29.60 in NW 10 mph 11 mph 67% 0 in 0.00 W/m2
01:44 56.9 °F 46.4 °F 29.60 in NNW 6 mph 12 mph 68% 0 in 0.00 W/m2
01:49 56.9 °F 46.8 °F 29.60 in NW 12 mph 15 mph 69% 0 in 0.00 W/m2
01:54 57.1 °F 47.4 °F 29.60 in NNW 12 mph 16 mph 70% 0 in 0.00 W/m2
01:59 57.2 °F 47.5 °F 29.60 in NNW 12 mph 16 mph 70% 0 in 0.00 W/m2
02:04 57.3 °F 47.6 °F 29.60 in North 13 mph 20 mph 70% 0 in 0.00 W/m2
02:09 57.4 °F 47.7 °F 29.60 in NNW 15 mph 22 mph 70% 0 in 0.00 W/m2
02:14 57.7 °F 47.6 °F 29.60 in NNW 14 mph 22 mph 69% 0 in 0.00 W/m2
02:19 57.6 °F 47.1 °F 29.60 in NW 14 mph 22 mph 68% 0 in 0.00 W/m2
02:24 57.5 °F 47 °F 29.61 in NNW 15 mph 22 mph 68% 0 in 0.00 W/m2
02:29 57.2 °F 47.1 °F 29.61 in NW 6 mph 19 mph 69% 0 in 0.00 W/m2
02:34 56.8 °F 47.9 °F 29.61 in NW 13 mph 19 mph 72% 0 in 0.00 W/m2
02:39 56.8 °F 47.1 °F 29.61 in NW 12 mph 19 mph 70% 0 in 0.00 W/m2
02:44 56.6 °F 47.3 °F 29.61 in NW 9 mph 19 mph 71% 0 in 0.00 W/m2
02:49 56.2 °F 46.9 °F 29.62 in NW 10 mph 19 mph 71% 0 in 0.00 W/m2
02:54 55.8 °F 46.5 °F 29.62 in NW 8 mph 19 mph 71% 0 in 0.00 W/m2
02:59 55.5 °F 46.6 °F 29.62 in NW 11 mph 19 mph 72% 0 in 0.00 W/m2
03:04 55.3 °F 46.4 °F 29.63 in NNW 10 mph 18 mph 72% 0 in 0.00 W/m2
03:09 54.8 °F 46.3 °F 29.63 in NNW 11 mph 18 mph 73% 0 in 0.00 W/m2
03:14 54.6 °F 46.5 °F 29.63 in NNW 11 mph 18 mph 74% 0 in 0.00 W/m2
03:19 54.3 °F 46.5 °F 29.63 in NW 16 mph 17 mph 75% 0 in 0.00 W/m2
03:24 54.1 °F 46.3 °F 29.63 in NW 11 mph 19 mph 75% 0 in 0.00 W/m2
03:29 53.7 °F 46.7 °F 29.64 in NW 15 mph 19 mph 77% 0 in 0.00 W/m2
03:34 53.6 °F 46.9 °F 29.64 in NW 12 mph 20 mph 78% 0 in 0.00 W/m2
03:39 53.4 °F 47.4 °F 29.64 in NW 14 mph 20 mph 80% 0 in 0.00 W/m2
03:44 53.5 °F 48.1 °F 29.64 in NW 16 mph 21 mph 82% 0 in 0.00 W/m2
03:49 53.5 °F 48.5 °F 29.65 in NW 8 mph 21 mph 83% 0 in 0.00 W/m2
03:54 53.5 °F 48.5 °F 29.65 in NNW 13 mph 21 mph 83% 0 in 0.00 W/m2
03:59 53.7 °F 49 °F 29.65 in NNW 10 mph 21 mph 84% 0 in 0.00 W/m2
04:04 53.8 °F 49.1 °F 29.65 in NNW 12 mph 20 mph 84% 0 in 0.00 W/m2
04:09 53.8 °F 49.1 °F 29.65 in NW 20 mph 20 mph 84% 0 in 0.00 W/m2
04:14 53.8 °F 49.1 °F 29.66 in NNW 20 mph 22 mph 84% 0 in 0.00 W/m2
04:19 53.5 °F 48.8 °F 29.66 in NNW 13 mph 27 mph 84% 0 in 0.00 W/m2
04:24 53.2 °F 48.5 °F 29.66 in NNW 16 mph 27 mph 84% 0 in 0.00 W/m2
04:29 52.9 °F 48.2 °F 29.66 in NW 13 mph 27 mph 84% 0 in 0.00 W/m2
04:34 52.7 °F 48.3 °F 29.66 in NW 18 mph 27 mph 85% 0 in 0.00 W/m2
04:39 52.4 °F 48 °F 29.67 in NNW 15 mph 23 mph 85% 0 in 0.00 W/m2
04:44 52 °F 47.3 °F 29.67 in NNW 14 mph 23 mph 84% 0 in 0.00 W/m2
04:49 51.4 °F 46.7 °F 29.67 in NW 24 mph 24 mph 84% 0 in 0.00 W/m2
04:54 51 °F 46.6 °F 29.68 in NNW 15 mph 24 mph 85% 0 in 0.00 W/m2
04:59 50.6 °F 46.3 °F 29.68 in NNW 15 mph 24 mph 85% 0 in 0.00 W/m2
05:04 50.3 °F 46 °F 29.68 in NW 15 mph 24 mph 85% 0 in 0.00 W/m2
05:09 50.1 °F 46.1 °F 29.68 in NW 18 mph 26 mph 86% 0 in 0.00 W/m2
05:14 50 °F 46 °F 29.69 in NNW 14 mph 26 mph 86% 0 in 0.00 W/m2
05:19 49.9 °F 45.9 °F 29.69 in NNW 11 mph 26 mph 86% 0 in 0.00 W/m2
05:24 49.7 °F 45.7 °F 29.69 in NNW 22 mph 26 mph 86% 0 in 0.00 W/m2
05:29 49.4 °F 45.4 °F 29.69 in NNW 18 mph 26 mph 86% 0 in 0.00 W/m2
05:34 49.2 °F 45.5 °F 29.69 in NNW 21 mph 26 mph 87% 0 in 0.00 W/m2
05:39 48.9 °F 45.2 °F 29.69 in NNW 13 mph 25 mph 87% 0 in 0.00 W/m2
05:44 48.7 °F 45 °F 29.69 in NNW 21 mph 26 mph 87% 0 in 0.00 W/m2
05:49 48.5 °F 45.1 °F 29.69 in NNW 22 mph 26 mph 88% 0 in 0.00 W/m2
05:54 48.5 °F 45.1 °F 29.69 in NNW 18 mph 26 mph 88% 0 in 0.00 W/m2
05:59 48.2 °F 44.8 °F 29.69 in NNW 21 mph 28 mph 88% 0 in 0.00 W/m2
06:04 47.9 °F 44.5 °F 29.70 in North 12 mph 28 mph 88% 0 in 0.00 W/m2
06:09 47.7 °F 44.3 °F 29.70 in NNW 24 mph 28 mph 88% 0 in 0.00 W/m2
06:14 47.4 °F 44 °F 29.71 in NNW 16 mph 28 mph 88% 0 in 5.00 W/m2
06:19 47.3 °F 44.2 °F 29.71 in NNW 17 mph 25 mph 89% 0 in 5.00 W/m2
06:24 47.2 °F 44.1 °F 29.72 in NNW 15 mph 25 mph 89% 0 in 7.00 W/m2
06:29 47 °F 43.9 °F 29.71 in NNW 12 mph 21 mph 89% 0 in 9.00 W/m2
06:34 47 °F 43.9 °F 29.72 in North 16 mph 20 mph 89% 0 in 14.00 W/m2
06:39 46.9 °F 43.8 °F 29.72 in NNW 15 mph 20 mph 89% 0 in 14.00 W/m2
06:44 46.8 °F 43.7 °F 29.73 in NNW 12 mph 23 mph 89% 0 in 18.00 W/m2
06:49 46.7 °F 43.9 °F 29.74 in NNW 11 mph 23 mph 90% 0 in 25.00 W/m2
06:54 46.6 °F 43.8 °F 29.74 in NNW 16 mph 20 mph 90% 0 in 26.00 W/m2
06:59 46.5 °F 43.7 °F 29.74 in NNW 13 mph 24 mph 90% 0 in 25.00 W/m2
07:04 46.5 °F 43.7 °F 29.75 in NNW 13 mph 24 mph 90% 0 in 21.00 W/m2
07:09 46.5 °F 43.7 °F 29.75 in NNW 16 mph 24 mph 90% 0 in 19.00 W/m2
07:14 46.4 °F 43.6 °F 29.75 in NNW 14 mph 24 mph 90% 0 in 18.00 W/m2
07:19 46.4 °F 43.6 °F 29.76 in North 12 mph 21 mph 90% 0 in 19.00 W/m2
07:24 46.5 °F 43.7 °F 29.76 in NNW 18 mph 21 mph 90% 0 in 23.00 W/m2
07:29 46.4 °F 43.3 °F 29.75 in North 15 mph 23 mph 89% 0 in 23.00 W/m2
07:34 46.3 °F 43.2 °F 29.76 in North 16 mph 23 mph 89% 0 in 26.00 W/m2
07:39 46.1 °F 43.3 °F 29.76 in NNW 14 mph 22 mph 90% 0 in 30.00 W/m2
07:44 46 °F 43.2 °F 29.76 in NNW 16 mph 22 mph 90% 0 in 33.00 W/m2
07:49 45.8 °F 43 °F 29.76 in NNW 15 mph 21 mph 90% 0 in 28.00 W/m2
07:54 45.8 °F 43 °F 29.77 in North 17 mph 21 mph 90% 0 in 30.00 W/m2
07:59 45.8 °F 43 °F 29.77 in North 14 mph 21 mph 90% 0 in 35.00 W/m2
08:04 45.8 °F 43 °F 29.77 in North 14 mph 20 mph 90% 0 in 33.00 W/m2
08:09 45.8 °F 43.3 °F 29.77 in North 18 mph 21 mph 91% 0 in 35.00 W/m2
08:14 45.8 °F 43 °F 29.78 in NNE 17 mph 21 mph 90% 0 in 30.00 W/m2
08:19 45.8 °F 43.3 °F 29.78 in NNE 9 mph 22 mph 91% 0 in 28.00 W/m2
08:24 45.6 °F 43.1 °F 29.78 in NNE 9 mph 22 mph 91% 0 in 35.00 W/m2
08:29 45.4 °F 42.9 °F 29.79 in NNE 11 mph 22 mph 91% 0 in 40.00 W/m2
08:34 45.3 °F 42.8 °F 29.80 in NNE 8 mph 22 mph 91% 0 in 47.00 W/m2
08:39 45.2 °F 42.7 °F 29.80 in NNE 12 mph 18 mph 91% 0 in 67.00 W/m2
08:44 45.1 °F 42.6 °F 29.79 in NNE 11 mph 18 mph 91% 0 in 67.00 W/m2
08:49 44.9 °F 42.4 °F 29.79 in NE 16 mph 21 mph 91% 0 in 67.00 W/m2
08:54 44.9 °F 42.4 °F 29.79 in NNE 15 mph 21 mph 91% 0 in 84.00 W/m2
08:59 44.8 °F 42 °F 29.79 in NNE 20 mph 25 mph 90% 0 in 104.00 W/m2
09:04 44.8 °F 42 °F 29.79 in NNE 17 mph 25 mph 90% 0 in 135.00 W/m2
09:09 44.9 °F 42.1 °F 29.79 in NNE 15 mph 25 mph 90% 0 in 121.00 W/m2
09:14 44.9 °F 41.9 °F 29.79 in NE 15 mph 25 mph 89% 0 in 111.00 W/m2
09:19 44.8 °F 41.8 °F 29.79 in NNE 11 mph 23 mph 89% 0 in 123.00 W/m2
09:24 44.7 °F 41.4 °F 29.79 in NE 16 mph 25 mph 88% 0 in 125.00 W/m2
09:29 44.8 °F 41.5 °F 29.80 in NNE 17 mph 25 mph 88% 0 in 109.00 W/m2
09:34 45 °F 41.7 °F 29.80 in NNE 22 mph 23 mph 88% 0 in 104.00 W/m2
09:39 44.9 °F 41.6 °F 29.80 in North 14 mph 26 mph 88% 0 in 116.00 W/m2
09:44 45.1 °F 41.5 °F 29.81 in NNE 19 mph 28 mph 87% 0 in 299.00 W/m2
09:49 45.6 °F 41.7 °F 29.81 in North 16 mph 28 mph 86% 0 in 202.00 W/m2
09:54 46.1 °F 41.5 °F 29.82 in NE 15 mph 26 mph 84% 0 in 232.00 W/m2
09:59 46.4 °F 41.5 °F 29.82 in NNE 12 mph 26 mph 83% 0 in 206.00 W/m2
10:04 46.7 °F 41.8 °F 29.82 in NNE 20 mph 22 mph 83% 0 in 278.00 W/m2
10:09 47 °F 41.8 °F 29.82 in North 13 mph 23 mph 82% 0 in 322.00 W/m2
10:14 47.1 °F 41.6 °F 29.82 in NNE 14 mph 23 mph 81% 0 in 279.00 W/m2
10:19 47.3 °F 41.8 °F 29.82 in NNE 16 mph 20 mph 81% 0 in 345.00 W/m2
10:24 47.6 °F 42.1 °F 29.82 in NNE 13 mph 20 mph 81% 0 in 260.00 W/m2
10:29 47.6 °F 41.7 °F 29.83 in NNE 10 mph 20 mph 80% 0 in 144.00 W/m2
10:34 47.2 °F 41.3 °F 29.83 in NE 16 mph 20 mph 80% 0 in 181.00 W/m2
10:39 46.8 °F 41 °F 29.83 in ENE 12 mph 22 mph 80% 0 in 367.00 W/m2
10:44 46.8 °F 41 °F 29.83 in NNE 15 mph 22 mph 80% 0 in 295.00 W/m2
10:49 46.9 °F 41.1 °F 29.84 in NE 17 mph 20 mph 80% 0 in 186.00 W/m2
10:54 46.7 °F 40.9 °F 29.83 in NE 19 mph 21 mph 80% 0 in 246.00 W/m2
10:59 46.9 °F 40.7 °F 29.83 in NE 18 mph 21 mph 79% 0 in 346.00 W/m2
11:04 47.4 °F 41.2 °F 29.83 in NNE 17 mph 22 mph 79% 0 in 318.00 W/m2
11:09 47.8 °F 41.3 °F 29.84 in NNE 14 mph 25 mph 78% 0 in 287.00 W/m2
11:14 47.9 °F 40.7 °F 29.84 in NNE 12 mph 25 mph 76% 0 in 209.00 W/m2
11:19 47.9 °F 41 °F 29.84 in NE 11 mph 25 mph 77% 0 in 267.00 W/m2
11:24 48.1 °F 41.2 °F 29.84 in NNE 15 mph 25 mph 77% 0 in 394.00 W/m2
11:29 48.5 °F 41.3 °F 29.84 in NE 13 mph 20 mph 76% 0 in 353.00 W/m2
11:34 48.5 °F 40.9 °F 29.84 in ENE 13 mph 19 mph 75% 0 in 320.00 W/m2
11:39 48.3 °F 40.4 °F 29.84 in NE 7 mph 18 mph 74% 0 in 294.00 W/m2
11:44 48.7 °F 40.8 °F 29.85 in NE 13 mph 18 mph 74% 0 in 517.00 W/m2
11:49 49.3 °F 41 °F 29.85 in NE 16 mph 20 mph 73% 0 in 485.00 W/m2
11:54 50.3 °F 42.7 °F 29.84 in NNE 12 mph 20 mph 75% 0 in 559.00 W/m2
11:59 51.2 °F 42.5 °F 29.84 in NNE 21 mph 21 mph 72% 0 in 605.00 W/m2
12:04 51.7 °F 42.2 °F 29.84 in North 15 mph 23 mph 70% 0 in 540.00 W/m2
12:09 52.1 °F 42.6 °F 29.84 in North 10 mph 23 mph 70% 0 in 830.00 W/m2
12:14 52.4 °F 42.5 °F 29.84 in North 10 mph 23 mph 69% 0 in 719.00 W/m2
12:19 52.8 °F 43.3 °F 29.84 in NNE 17 mph 23 mph 70% 0 in 522.00 W/m2
12:24 53.3 °F 43.8 °F 29.84 in NNE 10 mph 22 mph 70% 0 in 1023.00 W/m2
12:29 54.2 °F 44.2 °F 29.84 in NNE 11 mph 24 mph 69% 0 in 1194.00 W/m2
12:34 54.2 °F 42.7 °F 29.84 in NNE 12 mph 24 mph 65% 0 in 587.00 W/m2
12:39 53.7 °F 41 °F 29.84 in NNE 13 mph 24 mph 62% 0 in 471.00 W/m2
12:44 53.6 °F 42.1 °F 29.84 in NE 12 mph 24 mph 65% 0 in 533.00 W/m2
12:49 53.9 °F 41.2 °F 29.83 in NE 14 mph 22 mph 62% 0 in 496.00 W/m2
12:54 53.8 °F 40.7 °F 29.84 in ENE 8 mph 22 mph 61% 0 in 483.00 W/m2
12:59 53.9 °F 41.2 °F 29.84 in ENE 18 mph 22 mph 62% 0 in 501.00 W/m2
13:04 54 °F 41.3 °F 29.84 in NE 10 mph 22 mph 62% 0 in 499.00 W/m2
13:09 54.5 °F 41.3 °F 29.84 in NE 11 mph 19 mph 61% 0 in 496.00 W/m2
13:14 54.7 °F 40.2 °F 29.83 in ENE 6 mph 21 mph 58% 0 in 496.00 W/m2
13:19 55.2 °F 41.5 °F 29.83 in NNE 9 mph 21 mph 60% 0 in 468.00 W/m2
13:24 55.7 °F 42 °F 29.83 in NNE 11 mph 18 mph 60% 0 in 457.00 W/m2
13:29 56 °F 41 °F 29.83 in NE 13 mph 20 mph 57% 0 in 492.00 W/m2
13:34 56.3 °F 40.3 °F 29.83 in NNE 11 mph 20 mph 55% 0 in 515.00 W/m2
13:39 56.5 °F 40 °F 29.83 in NE 9 mph 20 mph 54% 0 in 552.00 W/m2
13:44 56.8 °F 40.8 °F 29.84 in NNE 11 mph 20 mph 55% 0 in 557.00 W/m2
13:49 56.6 °F 39.2 °F 29.84 in ENE 14 mph 20 mph 52% 0 in 506.00 W/m2
13:54 56.6 °F 40.1 °F 29.84 in NE 11 mph 18 mph 54% 0 in 536.00 W/m2
13:59 56.4 °F 39.5 °F 29.84 in NE 12 mph 18 mph 53% 0 in 571.00 W/m2
14:04 57.3 °F 40.8 °F 29.84 in NE 12 mph 19 mph 54% 0 in 534.00 W/m2
14:09 57.2 °F 39.7 °F 29.84 in NNE 15 mph 20 mph 52% 0 in 578.00 W/m2
14:14 57.5 °F 39.5 °F 29.84 in NE 11 mph 20 mph 51% 0 in 638.00 W/m2
14:19 58.1 °F 41 °F 29.84 in ENE 15 mph 20 mph 53% 0 in 1078.00 W/m2
14:24 58.5 °F 39.4 °F 29.84 in NE 10 mph 20 mph 49% 0 in 997.00 W/m2
14:29 58.9 °F 39.8 °F 29.84 in NE 13 mph 19 mph 49% 0 in 969.00 W/m2
14:34 59.3 °F 42.2 °F 29.84 in ENE 12 mph 19 mph 53% 0 in 940.00 W/m2
14:39 59.5 °F 40.8 °F 29.83 in NE 10 mph 19 mph 50% 0 in 749.00 W/m2
14:44 59.8 °F 41.1 °F 29.84 in NE 9 mph 19 mph 50% 0 in 664.00 W/m2
14:49 59.5 °F 38.1 °F 29.83 in ENE 4 mph 19 mph 45% 0 in 861.00 W/m2
14:54 59.5 °F 38.7 °F 29.83 in ENE 11 mph 17 mph 46% 0 in 824.00 W/m2
14:59 59.8 °F 41.1 °F 29.83 in ENE 9 mph 17 mph 50% 0 in 847.00 W/m2
15:04 59.7 °F 39.4 °F 29.83 in NE 14 mph 17 mph 47% 0 in 742.00 W/m2
15:09 59.6 °F 39.9 °F 29.83 in North 12 mph 17 mph 48% 0 in 754.00 W/m2
15:14 60 °F 41.3 °F 29.83 in NNE 7 mph 17 mph 50% 0 in 733.00 W/m2
15:19 60.4 °F 39.5 °F 29.83 in ENE 13 mph 17 mph 46% 0 in 838.00 W/m2
15:24 59.4 °F 36.9 °F 29.83 in ENE 8 mph 17 mph 43% 0 in 752.00 W/m2
15:29 59 °F 38.8 °F 29.83 in NE 6 mph 16 mph 47% 0 in 735.00 W/m2
15:34 59.1 °F 37.2 °F 29.83 in NE 5 mph 16 mph 44% 0 in 622.00 W/m2
15:39 59.1 °F 37.2 °F 29.83 in NE 5 mph 16 mph 44% 0 in 661.00 W/m2
15:44 59.5 °F 39.2 °F 29.83 in East 8 mph 15 mph 47% 0 in 578.00 W/m2
15:49 60 °F 40.2 °F 29.83 in NNE 6 mph 15 mph 48% 0 in 598.00 W/m2
15:54 60.5 °F 39.6 °F 29.83 in ENE 13 mph 15 mph 46% 0 in 606.00 W/m2
15:59 60.6 °F 39.1 °F 29.82 in ENE 16 mph 20 mph 45% 0 in 584.00 W/m2
16:04 60 °F 38 °F 29.82 in NE 15 mph 21 mph 44% 0 in 564.00 W/m2
16:09 59.9 °F 38.5 °F 29.82 in NNE 14 mph 21 mph 45% 0 in 587.00 W/m2
16:14 59.8 °F 36.6 °F 29.82 in NE 13 mph 21 mph 42% 0 in 675.00 W/m2
16:19 59.5 °F 37.6 °F 29.82 in NNE 11 mph 21 mph 44% 0 in 631.00 W/m2
16:24 59.7 °F 37.2 °F 29.82 in ENE 9 mph 19 mph 43% 0 in 520.00 W/m2
16:29 59.9 °F 39.1 °F 29.82 in North 15 mph 19 mph 46% 0 in 613.00 W/m2
16:34 60.4 °F 37.8 °F 29.82 in NNE 11 mph 18 mph 43% 0 in 580.00 W/m2
16:39 60.7 °F 38.6 °F 29.81 in NE 8 mph 18 mph 44% 0 in 601.00 W/m2
16:44 60.7 °F 36.8 °F 29.81 in NE 14 mph 20 mph 41% 0 in 422.00 W/m2
16:49 60.4 °F 37.2 °F 29.81 in NNE 12 mph 20 mph 42% 0 in 675.00 W/m2
16:54 60.9 °F 37 °F 29.81 in NE 9 mph 20 mph 41% 0 in 608.00 W/m2
16:59 60.6 °F 35.5 °F 29.81 in ENE 14 mph 20 mph 39% 0 in 557.00 W/m2
17:04 60.3 °F 35.9 °F 29.81 in NE 13 mph 19 mph 40% 0 in 566.00 W/m2
17:09 60.4 °F 35.3 °F 29.81 in ENE 13 mph 19 mph 39% 0 in 315.00 W/m2
17:14 60.1 °F 35 °F 29.81 in NE 13 mph 19 mph 39% 0 in 425.00 W/m2
17:19 60.1 °F 35 °F 29.81 in NE 9 mph 19 mph 39% 0 in 452.00 W/m2
17:24 60 °F 34.3 °F 29.81 in NE 12 mph 19 mph 38% 0 in 441.00 W/m2
17:29 60.1 °F 35 °F 29.81 in ENE 11 mph 21 mph 39% 0 in 448.00 W/m2
17:34 59.7 °F 33.4 °F 29.81 in East 13 mph 21 mph 37% 0 in 478.00 W/m2
17:39 59.9 °F 33.5 °F 29.81 in ENE 10 mph 20 mph 37% 0 in 480.00 W/m2
17:44 60.2 °F 33.8 °F 29.81 in ENE 16 mph 20 mph 37% 0 in 462.00 W/m2
17:49 60.1 °F 33.7 °F 29.81 in NE 12 mph 19 mph 37% 0 in 489.00 W/m2
17:54 60.2 °F 33.1 °F 29.81 in East 11 mph 19 mph 36% 0 in 550.00 W/m2
17:59 60.1 °F 32.3 °F 29.81 in East 15 mph 19 mph 35% 0 in 598.00 W/m2
18:04 60.3 °F 33.2 °F 29.81 in ENE 11 mph 19 mph 36% 0 in 554.00 W/m2
18:09 60.3 °F 34.6 °F 29.81 in ENE 6 mph 17 mph 38% 0 in 246.00 W/m2
18:14 59.6 °F 29.7 °F 29.81 in ENE 10 mph 18 mph 32% 0 in 213.00 W/m2
18:19 59.2 °F 32.2 °F 29.81 in ENE 10 mph 18 mph 36% 0 in 489.00 W/m2
18:24 59.5 °F 33.2 °F 29.81 in ENE 10 mph 18 mph 37% 0 in 438.00 W/m2
18:29 59.6 °F 33.3 °F 29.82 in NE 14 mph 19 mph 37% 0 in 281.00 W/m2
18:34 59.5 °F 33.2 °F 29.81 in ENE 9 mph 19 mph 37% 0 in 364.00 W/m2
18:39 59.5 °F 32.5 °F 29.81 in NE 14 mph 19 mph 36% 0 in 461.00 W/m2
18:44 60 °F 33.6 °F 29.81 in ENE 10 mph 19 mph 37% 0 in 388.00 W/m2
18:49 60.1 °F 33.7 °F 29.81 in East 8 mph 19 mph 37% 0 in 388.00 W/m2
18:54 60.4 °F 33.3 °F 29.81 in ENE 5 mph 18 mph 36% 0 in 267.00 W/m2
18:59 60.2 °F 33.1 °F 29.81 in NE 12 mph 20 mph 36% 0 in 390.00 W/m2
19:04 59.8 °F 32.8 °F 29.81 in NE 9 mph 21 mph 36% 0 in 327.00 W/m2
19:09 59.7 °F 32 °F 29.81 in ENE 9 mph 21 mph 35% 0 in 213.00 W/m2
19:14 59.4 °F 33.1 °F 29.81 in ENE 6 mph 21 mph 37% 0 in 199.00 W/m2
19:19 59.1 °F 32.8 °F 29.81 in NE 16 mph 21 mph 37% 0 in 237.00 W/m2
19:24 58.8 °F 32.6 °F 29.81 in NE 16 mph 20 mph 37% 0 in 239.00 W/m2
19:29 58.7 °F 31.8 °F 29.81 in ENE 14 mph 19 mph 36% 0 in 199.00 W/m2
19:34 58.4 °F 31.5 °F 29.81 in East 7 mph 19 mph 36% 0 in 118.00 W/m2
19:39 58.1 °F 31.3 °F 29.81 in NE 9 mph 19 mph 36% 0 in 176.00 W/m2
19:44 57.9 °F 30.4 °F 29.81 in ENE 11 mph 19 mph 35% 0 in 74.00 W/m2
19:49 57.5 °F 30.7 °F 29.81 in ENE 9 mph 17 mph 36% 0 in 62.00 W/m2
19:54 57.1 °F 31 °F 29.82 in NNE 8 mph 16 mph 37% 0 in 62.00 W/m2
19:59 56.7 °F 31.4 °F 29.82 in ENE 8 mph 16 mph 38% 0 in 72.00 W/m2
20:04 56.6 °F 31.9 °F 29.82 in ENE 9 mph 16 mph 39% 0 in 81.00 W/m2
20:09 56.6 °F 31.9 °F 29.82 in East 9 mph 16 mph 39% 0 in 120.00 W/m2
20:14 56.6 °F 32.5 °F 29.81 in East 13 mph 14 mph 40% 0 in 100.00 W/m2
20:19 56.6 °F 33.8 °F 29.82 in East 4 mph 14 mph 42% 0 in 81.00 W/m2
20:24 56.2 °F 34 °F 29.82 in ESE 8 mph 14 mph 43% 0 in 30.00 W/m2
20:29 55.6 °F 33.4 °F 29.82 in East 9 mph 13 mph 43% 0 in 26.00 W/m2
20:34 55.1 °F 33 °F 29.82 in East 8 mph 13 mph 43% 0 in 26.00 W/m2
20:39 54.7 °F 32.6 °F 29.82 in East 4 mph 13 mph 43% 0 in 21.00 W/m2
20:44 54.4 °F 32.9 °F 29.82 in East 7 mph 13 mph 44% 0 in 16.00 W/m2
20:49 54.1 °F 33.2 °F 29.83 in East 7 mph 13 mph 45% 0 in 16.00 W/m2
20:54 53.7 °F 32.8 °F 29.83 in ESE 8 mph 13 mph 45% 0 in 11.00 W/m2
20:59 53.3 °F 33 °F 29.83 in East 5 mph 13 mph 46% 0 in 9.00 W/m2
21:04 53 °F 32.8 °F 29.84 in East 7 mph 13 mph 46% 0 in 7.00 W/m2
21:09 52.7 °F 32.5 °F 29.84 in ENE 4 mph 13 mph 46% 0 in 5.00 W/m2
21:14 52.5 °F 32.3 °F 29.84 in ENE 4 mph 10 mph 46% 0 in 0.00 W/m2
21:19 52.3 °F 32.1 °F 29.83 in ENE 7 mph 11 mph 46% 0 in 0.00 W/m2
21:24 52.2 °F 31.5 °F 29.83 in NE 9 mph 14 mph 45% 0 in 0.00 W/m2
21:29 52.2 °F 30.9 °F 29.84 in ENE 9 mph 15 mph 44% 0 in 0.00 W/m2
21:34 52.1 °F 30.8 °F 29.84 in ENE 11 mph 15 mph 44% 0 in 0.00 W/m2
21:39 52.1 °F 30.3 °F 29.84 in East 5 mph 14 mph 43% 0 in 0.00 W/m2
21:44 51.9 °F 30.1 °F 29.84 in East 9 mph 14 mph 43% 0 in 0.00 W/m2
21:49 51.7 °F 30.5 °F 29.85 in East 9 mph 14 mph 44% 0 in 0.00 W/m2
21:54 51.6 °F 30.4 °F 29.85 in ENE 7 mph 14 mph 44% 0 in 0.00 W/m2
21:59 51.5 °F 30.3 °F 29.85 in NE 6 mph 14 mph 44% 0 in 0.00 W/m2
22:04 51.5 °F 30.8 °F 29.85 in East 9 mph 15 mph 45% 0 in 0.00 W/m2
22:09 51.4 °F 30.7 °F 29.85 in NE 7 mph 15 mph 45% 0 in 0.00 W/m2
22:14 51.3 °F 30.7 °F 29.86 in ENE 8 mph 16 mph 45% 0 in 0.00 W/m2
22:19 51.2 °F 30.6 °F 29.86 in East 6 mph 16 mph 45% 0 in 0.00 W/m2
22:24 51.2 °F 30.6 °F 29.86 in East 10 mph 16 mph 45% 0 in 0.00 W/m2
22:29 51.1 °F 30.5 °F 29.86 in ENE 12 mph 16 mph 45% 0 in 0.00 W/m2
22:34 51.1 °F 30.5 °F 29.86 in East 13 mph 17 mph 45% 0 in 0.00 W/m2
22:39 51.1 °F 30.5 °F 29.86 in ENE 13 mph 17 mph 45% 0 in 0.00 W/m2
22:44 51.1 °F 30.5 °F 29.86 in East 13 mph 16 mph 45% 0 in 0.00 W/m2
22:49 51.1 °F 31 °F 29.85 in East 13 mph 16 mph 46% 0 in 0.00 W/m2
22:54 50.9 °F 31.4 °F 29.85 in ENE 6 mph 18 mph 47% 0 in 0.00 W/m2
22:59 50.8 °F 32.3 °F 29.85 in ENE 9 mph 18 mph 49% 0 in 0.00 W/m2
23:04 50.7 °F 32.2 °F 29.86 in ENE 9 mph 18 mph 49% 0 in 0.00 W/m2
23:09 50.7 °F 32.7 °F 29.85 in ENE 14 mph 18 mph 50% 0 in 0.00 W/m2
23:14 50.7 °F 32.7 °F 29.85 in ENE 6 mph 16 mph 50% 0 in 0.00 W/m2
23:19 50.6 °F 32.6 °F 29.84 in NE 13 mph 16 mph 50% 0 in 0.00 W/m2
23:24 50.5 °F 32.5 °F 29.84 in ENE 12 mph 17 mph 50% 0 in 0.00 W/m2
23:29 50.6 °F 32.1 °F 29.84 in ENE 10 mph 17 mph 49% 0 in 0.00 W/m2
23:34 50.5 °F 32 °F 29.84 in ENE 7 mph 17 mph 49% 0 in 0.00 W/m2
23:39 50.5 °F 32 °F 29.84 in East 10 mph 16 mph 49% 0 in 0.00 W/m2
23:44 50.5 °F 32 °F 29.84 in East 14 mph 16 mph 49% 0 in 0.00 W/m2
23:49 50.4 °F 32.4 °F 29.83 in East 8 mph 16 mph 50% 0 in 0.00 W/m2
23:54 50.3 °F 32.4 °F 29.83 in ENE 8 mph 16 mph 50% 0 in 0.00 W/m2
23:59 50.2 °F 32.3 °F 29.82 in East 8 mph 16 mph 50% 0 in 0.00 W/m2
Bismarck, North Dakota, USA
Compliments of Weather Underground - 4 mb